Lake Elizabeth, California
Current Conditions -  °F | °C
As of 10:48 PM on Monday 20 Oct 2014 (Local Time) from KSDB Reporting Station
Clear Clear  
Wind Chill: 58°   Ceiling: Unl
Heat Index: 58°   Visibility: 10mi
Dew Point: 45°   Wind: 28mph
Humidity: 62%   Direction: 330°NNW
Pressure: 30.06"   Gusts: 33mph
Location:  34.6849°N, 118.558°W
Report Text: KSDB 210548Z AUTO 33024G29KT 10SM CLR 14/07 A3006 RMK AO2 PK WND 33029/0548 SLP132 T01440072 10211 20144 53006
Loading
Personal Weather Stations






























Interactive Weather Map
Tropical Storm Tracking
New forecast layout! Learn more

10-Day Weather Forecast

Advertisements
Track Severe Weather on mobile